createdAt,value
2023-05-15T00:00:22.942Z,85.50
2023-05-15T00:02:51.320Z,86.27
2023-05-15T00:05:19.793Z,86.74
2023-05-15T00:07:48.089Z,87.73
2023-05-15T00:10:16.286Z,87.97
2023-05-15T00:12:45.886Z,88.43
2023-05-15T00:15:14.278Z,88.89
2023-05-15T00:17:42.672Z,89.83
2023-05-15T00:20:11.438Z,90.64
2023-05-15T00:22:39.700Z,91.44
2023-05-15T00:25:08.412Z,91.85
2023-05-15T00:27:36.875Z,92.22
2023-05-15T00:30:07.294Z,92.71
2023-05-15T00:32:36.024Z,93.18
2023-05-15T00:35:05.905Z,93.75
2023-05-15T00:37:34.105Z,93.95
2023-05-15T00:40:02.440Z,94.42
2023-05-15T00:42:31.600Z,94.54
2023-05-15T00:45:01.823Z,94.48
2023-05-15T00:47:31.727Z,94.56
2023-05-15T00:50:00.273Z,95.02
2023-05-15T00:52:29.362Z,95.04
2023-05-15T00:54:57.830Z,95.51
2023-05-15T00:57:27.402Z,96.06
2023-05-15T00:59:57.732Z,96.56
2023-05-15T01:02:26.759Z,96.51
2023-05-15T01:04:56.452Z,97.63
2023-05-15T01:07:24.643Z,97.20
2023-05-15T01:09:54.325Z,97.29
2023-05-15T01:12:25.210Z,97.61
2023-05-15T01:14:53.473Z,98.13
2023-05-15T01:17:21.670Z,98.22
2023-05-15T01:19:52.280Z,98.41
2023-05-15T01:22:34.858Z,98.90
2023-05-15T01:25:17.717Z,98.88
2023-05-15T01:27:49.910Z,99.31
2023-05-15T01:30:19.896Z,99.82
2023-05-15T01:32:50.967Z,99.75
2023-05-15T01:35:22.524Z,100.00
2023-05-15T01:37:54.163Z,100.00
2023-05-15T01:40:23.692Z,100.00
2023-05-15T01:42:55.451Z,100.00
2023-05-15T01:45:25.529Z,100.00
2023-05-15T01:47:54.836Z,100.00
2023-05-15T01:50:23.179Z,100.00
2023-05-15T01:52:53.174Z,100.00
2023-05-15T01:55:23.535Z,100.00
2023-05-15T01:57:52.544Z,100.00
2023-05-15T02:00:23.063Z,100.00
2023-05-15T02:02:51.472Z,100.00
2023-05-15T02:05:20.266Z,100.00
2023-05-15T02:07:49.420Z,100.00
2023-05-15T02:10:19.371Z,100.00
2023-05-15T02:12:48.017Z,100.00
2023-05-15T02:15:17.998Z,100.00
2023-05-15T02:17:47.804Z,100.00
2023-05-15T02:20:18.074Z,100.00
2023-05-15T02:22:46.410Z,100.00
2023-05-15T02:25:14.653Z,100.00
2023-05-15T02:27:47.361Z,100.00
2023-05-15T02:30:21.314Z,100.00
2023-05-15T02:32:55.457Z,100.00
2023-05-15T02:35:28.083Z,100.00
2023-05-15T02:37:57.678Z,100.00
2023-05-15T02:40:26.997Z,100.00
2023-05-15T02:42:55.915Z,100.00
2023-05-15T02:45:25.283Z,100.00
2023-05-15T02:47:55.317Z,100.00
2023-05-15T02:50:23.767Z,100.00
2023-05-15T02:52:52.094Z,100.00
2023-05-15T02:55:20.599Z,100.00
2023-05-15T02:57:48.898Z,100.00
2023-05-15T03:00:17.535Z,100.00
2023-05-15T03:02:45.838Z,100.00
2023-05-15T03:05:15.446Z,100.00
2023-05-15T03:07:43.643Z,100.00
2023-05-15T03:10:23.851Z,100.00
2023-05-15T03:12:52.167Z,100.00
2023-05-15T03:15:21.156Z,100.00
2023-05-15T03:17:49.467Z,100.00
2023-05-15T03:20:19.080Z,100.00
2023-05-15T03:22:47.376Z,100.00
2023-05-15T03:25:17.118Z,100.00
2023-05-15T03:27:45.360Z,100.00
2023-05-15T03:30:13.667Z,100.00
2023-05-15T03:32:42.055Z,100.00
2023-05-15T03:35:10.883Z,100.00
2023-05-15T03:37:40.623Z,100.00
2023-05-15T03:40:09.475Z,100.00
2023-05-15T03:42:39.435Z,100.00
2023-05-15T03:45:10.251Z,100.00
2023-05-15T03:47:38.446Z,100.00
2023-05-15T03:50:07.367Z,100.00
2023-05-15T03:52:35.838Z,100.00
2023-05-15T03:55:05.996Z,100.00
2023-05-15T03:57:35.577Z,100.00
2023-05-15T04:00:04.020Z,100.00
2023-05-15T04:02:32.428Z,100.00
2023-05-15T04:05:00.793Z,100.00
2023-05-15T04:07:29.236Z,99.99
2023-05-15T04:10:01.380Z,99.58
2023-05-15T04:12:31.517Z,98.94
2023-05-15T04:15:00.577Z,99.76
2023-05-15T04:17:28.803Z,99.64
2023-05-15T04:19:57.050Z,99.44
2023-05-15T04:22:25.558Z,99.06
2023-05-15T04:24:53.863Z,98.81
2023-05-15T04:27:22.443Z,99.17
2023-05-15T04:29:52.075Z,99.17
2023-05-15T04:32:20.310Z,98.24
2023-05-15T04:34:57.727Z,97.82
2023-05-15T04:37:26.073Z,98.04
2023-05-15T04:39:54.313Z,98.73
2023-05-15T04:42:22.556Z,98.04
2023-05-15T04:44:52.084Z,96.92
2023-05-15T04:47:21.807Z,97.06
2023-05-15T04:49:50.119Z,96.03
2023-05-15T04:52:18.521Z,95.61
2023-05-15T04:54:47.956Z,96.33
2023-05-15T04:57:16.505Z,95.13
2023-05-15T04:59:44.745Z,94.88
2023-05-15T05:02:14.238Z,94.60
2023-05-15T05:04:43.516Z,95.00
2023-05-15T05:07:11.746Z,93.86
2023-05-15T05:09:40.089Z,93.52
2023-05-15T05:12:09.136Z,93.27
2023-05-15T05:14:37.446Z,93.97
2023-05-15T05:17:05.898Z,93.79
2023-05-15T05:19:35.690Z,93.73
2023-05-15T05:22:05.231Z,94.10
2023-05-15T05:24:35.337Z,92.15
2023-05-15T05:27:03.837Z,91.78
2023-05-15T05:29:32.160Z,92.22
2023-05-15T05:32:01.214Z,92.64
2023-05-15T05:34:29.653Z,93.12
2023-05-15T05:36:59.302Z,92.63
2023-05-15T05:39:27.682Z,93.42
2023-05-15T05:41:55.996Z,93.26
2023-05-15T05:44:24.437Z,92.20
2023-05-15T05:46:53.462Z,91.54
2023-05-15T05:49:21.889Z,90.28
2023-05-15T05:51:51.418Z,89.95
2023-05-15T05:54:21.483Z,89.77
2023-05-15T05:56:49.965Z,89.64
2023-05-15T05:59:18.220Z,89.81
2023-05-15T06:01:46.726Z,89.41
2023-05-15T06:04:17.607Z,88.94
2023-05-15T06:06:46.582Z,89.31
2023-05-15T06:09:14.864Z,90.13
2023-05-15T06:11:45.664Z,89.50
2023-05-15T06:14:14.255Z,89.36
2023-05-15T06:16:42.561Z,89.64
2023-05-15T06:19:10.924Z,88.82
2023-05-15T06:21:39.323Z,89.61
2023-05-15T06:24:07.728Z,89.67
2023-05-15T06:26:36.148Z,88.53
2023-05-15T06:29:05.994Z,88.44
2023-05-15T06:31:34.379Z,87.17
2023-05-15T06:34:02.895Z,87.25
2023-05-15T06:36:31.246Z,86.40
2023-05-15T06:38:59.575Z,85.74
2023-05-15T06:41:27.816Z,84.87
2023-05-15T06:43:56.118Z,83.95
2023-05-15T06:46:26.072Z,84.27
2023-05-15T06:48:54.590Z,83.12
2023-05-15T06:51:23.014Z,82.79
2023-05-15T06:53:51.322Z,82.57
2023-05-15T06:56:19.586Z,83.13
2023-05-15T06:58:51.134Z,82.34
2023-05-15T07:01:19.409Z,80.89
2023-05-15T07:03:48.996Z,81.67
2023-05-15T07:06:17.596Z,81.79
2023-05-15T07:08:45.815Z,80.64
2023-05-15T07:11:16.721Z,80.98
2023-05-15T07:13:45.246Z,80.41
2023-05-15T07:16:13.768Z,80.38
2023-05-15T07:18:42.791Z,81.18
2023-05-15T07:21:12.834Z,81.87
2023-05-15T07:23:41.145Z,82.40
2023-05-15T07:26:14.121Z,82.76
2023-05-15T07:28:45.496Z,82.52
2023-05-15T07:31:13.927Z,81.90
2023-05-15T07:33:42.206Z,80.30
2023-05-15T07:36:11.858Z,78.25
2023-05-15T07:38:40.336Z,76.88
2023-05-15T07:41:08.862Z,73.43
2023-05-15T07:43:39.268Z,72.70
2023-05-15T07:46:07.648Z,72.98
2023-05-15T07:48:35.986Z,72.85
2023-05-15T07:51:04.326Z,70.68
2023-05-15T07:53:34.172Z,69.50
2023-05-15T07:56:02.549Z,67.98
2023-05-15T07:58:30.822Z,65.56
2023-05-15T08:00:59.218Z,62.13
2023-05-15T08:03:30.665Z,57.07
2023-05-15T08:05:59.695Z,55.40
2023-05-15T08:08:27.935Z,53.96
2023-05-15T08:10:57.966Z,49.29
2023-05-15T08:13:26.247Z,48.98
2023-05-15T08:15:54.589Z,45.08
2023-05-15T08:18:23.325Z,42.91
2023-05-15T08:20:52.198Z,40.82
2023-05-15T08:23:20.473Z,39.85
2023-05-15T08:25:48.952Z,40.71
2023-05-15T08:28:19.296Z,38.39
2023-05-15T08:30:48.209Z,36.39
2023-05-15T08:33:16.507Z,34.59
2023-05-15T08:35:46.313Z,33.93
2023-05-15T08:38:15.802Z,33.90
2023-05-15T08:40:47.617Z,33.04
2023-05-15T08:43:17.401Z,31.02
2023-05-15T08:45:50.193Z,30.42
2023-05-15T08:48:23.169Z,31.04
2023-05-15T08:50:52.716Z,28.31
2023-05-15T08:53:21.785Z,27.10
2023-05-15T08:55:50.776Z,27.21
2023-05-15T08:58:21.491Z,27.61
2023-05-15T09:00:51.286Z,27.00
2023-05-15T09:03:26.141Z,27.01
2023-05-15T09:06:06.222Z,28.20
2023-05-15T09:08:35.430Z,27.29
2023-05-15T09:11:04.615Z,25.79
2023-05-15T09:13:33.005Z,25.98
2023-05-15T09:16:05.758Z,26.05
2023-05-15T09:18:35.640Z,24.42
2023-05-15T09:21:26.191Z,24.58
2023-05-15T09:24:16.777Z,24.83
2023-05-15T09:26:45.884Z,25.25
2023-05-15T09:29:19.336Z,25.61
2023-05-15T09:31:49.541Z,25.82
2023-05-15T09:34:18.102Z,27.85
2023-05-15T09:36:49.112Z,26.35
2023-05-15T09:39:23.232Z,25.83
2023-05-15T09:41:51.702Z,24.33
2023-05-15T09:44:21.941Z,25.17
2023-05-15T09:46:52.197Z,24.74
2023-05-15T09:49:20.989Z,23.63
2023-05-15T09:51:50.421Z,23.82
2023-05-15T09:54:19.841Z,23.04
2023-05-15T09:56:48.738Z,22.70
2023-05-15T09:59:17.619Z,21.27
2023-05-15T10:01:46.528Z,22.09
2023-05-15T10:04:16.227Z,23.13
2023-05-15T10:06:47.762Z,22.78
2023-05-15T10:09:39.158Z,22.43
2023-05-15T10:12:09.379Z,21.81
2023-05-15T10:14:37.756Z,23.75
2023-05-15T10:17:06.107Z,26.26
2023-05-15T10:19:47.080Z,26.90
2023-05-15T10:22:28.024Z,25.18
2023-05-15T10:25:01.595Z,22.64
2023-05-15T10:27:31.251Z,21.85
2023-05-15T10:30:00.028Z,21.50
2023-05-15T10:32:28.801Z,22.57
2023-05-15T10:34:58.681Z,20.45
2023-05-15T10:37:28.743Z,20.70
2023-05-15T10:39:58.583Z,20.16
2023-05-15T10:42:27.413Z,19.26
2023-05-15T10:45:00.021Z,18.49
2023-05-15T10:47:29.171Z,18.51
2023-05-15T10:49:59.116Z,19.33
2023-05-15T10:52:27.368Z,20.58
2023-05-15T10:54:56.852Z,19.46
2023-05-15T10:57:25.345Z,19.92
2023-05-15T10:59:53.986Z,20.22
2023-05-15T11:02:23.820Z,20.17
2023-05-15T11:04:56.146Z,19.78
2023-05-15T11:07:26.102Z,18.56
2023-05-15T11:09:54.714Z,19.21
2023-05-15T11:12:25.566Z,18.34
2023-05-15T11:15:12.993Z,16.33
2023-05-15T11:18:01.745Z,17.43
2023-05-15T11:20:37.909Z,17.88
2023-05-15T11:23:08.211Z,17.54
2023-05-15T11:25:37.272Z,18.09
2023-05-15T11:28:07.794Z,19.34
2023-05-15T11:30:37.311Z,18.79
2023-05-15T11:33:08.686Z,17.89
2023-05-15T11:35:38.834Z,16.90
2023-05-15T11:38:13.843Z,15.13
2023-05-15T11:40:46.493Z,16.03
2023-05-15T11:43:19.153Z,15.25
2023-05-15T11:45:49.048Z,15.75
2023-05-15T11:48:18.488Z,17.33
2023-05-15T11:50:47.373Z,16.72
2023-05-15T11:53:17.502Z,18.09
2023-05-15T11:55:46.202Z,17.10
2023-05-15T11:58:15.657Z,18.22
2023-05-15T12:00:45.653Z,17.66
2023-05-15T12:03:16.019Z,16.89
2023-05-15T12:05:57.578Z,15.67
2023-05-15T12:08:32.104Z,15.26
2023-05-15T12:11:01.168Z,15.49
2023-05-15T12:13:30.407Z,15.97
2023-05-15T12:15:59.115Z,15.71
2023-05-15T12:18:27.725Z,16.97
2023-05-15T12:20:56.332Z,18.52
2023-05-15T12:23:26.844Z,17.64
2023-05-15T12:25:59.057Z,18.37
2023-05-15T12:28:27.930Z,17.11
2023-05-15T12:30:56.596Z,16.62
2023-05-15T12:33:25.813Z,17.58
2023-05-15T12:35:58.030Z,18.64
2023-05-15T12:38:28.837Z,19.12
2023-05-15T12:40:58.574Z,16.49
2023-05-15T12:43:27.344Z,16.91
2023-05-15T12:45:56.282Z,16.93
2023-05-15T12:48:25.084Z,16.48
2023-05-15T12:50:53.665Z,16.40
2023-05-15T12:53:22.372Z,17.76
2023-05-15T12:55:51.874Z,17.92
2023-05-15T12:58:22.043Z,18.69
2023-05-15T13:00:52.926Z,19.25
2023-05-15T13:03:22.890Z,18.87
2023-05-15T13:05:52.751Z,20.95
2023-05-15T13:08:21.272Z,18.65
2023-05-15T13:10:56.673Z,17.74
2023-05-15T13:13:39.741Z,17.70
2023-05-15T13:16:18.615Z,17.19
2023-05-15T13:18:47.094Z,18.49
2023-05-15T13:21:15.429Z,19.80
2023-05-15T13:23:43.759Z,22.53
2023-05-15T13:26:12.096Z,23.51
2023-05-15T13:28:41.755Z,25.48
2023-05-15T13:31:10.306Z,25.58
2023-05-15T13:33:39.284Z,24.47
2023-05-15T13:36:23.305Z,22.36
2023-05-15T13:38:51.917Z,23.22
2023-05-15T13:41:21.108Z,21.34
2023-05-15T13:43:51.507Z,21.83
2023-05-15T13:46:19.964Z,21.18
2023-05-15T13:48:48.359Z,21.32
2023-05-15T13:51:16.723Z,20.76
2023-05-15T13:53:45.087Z,21.32
2023-05-15T13:56:13.474Z,21.02
2023-05-15T13:58:42.501Z,20.00
2023-05-15T14:01:12.310Z,20.74
2023-05-15T14:03:40.867Z,18.45
2023-05-15T14:06:09.473Z,19.69
2023-05-15T14:08:37.780Z,21.31
2023-05-15T14:11:06.883Z,21.41
2023-05-15T14:13:35.618Z,22.41
2023-05-15T14:16:04.117Z,22.65
2023-05-15T14:18:34.029Z,23.84
2023-05-15T14:21:02.414Z,25.45
2023-05-15T14:23:30.761Z,29.47
2023-05-15T14:25:59.301Z,31.49
2023-05-15T14:28:27.912Z,34.28
2023-05-15T14:30:56.149Z,38.36
2023-05-15T14:33:24.399Z,42.77
2023-05-15T14:35:54.032Z,46.88
2023-05-15T14:38:22.433Z,48.78
2023-05-15T14:40:50.719Z,45.54
2023-05-15T14:43:19.082Z,46.15
2023-05-15T14:45:47.371Z,46.41
2023-05-15T14:48:15.721Z,49.29
2023-05-15T14:50:44.589Z,47.49
2023-05-15T14:53:14.290Z,48.62
2023-05-15T14:55:42.516Z,48.69
2023-05-15T14:58:11.375Z,46.20
2023-05-15T15:00:39.633Z,45.40
2023-05-15T15:03:08.328Z,42.90
2023-05-15T15:05:36.676Z,42.54
2023-05-15T15:08:05.856Z,40.64
2023-05-15T15:10:36.079Z,40.70
2023-05-15T15:13:04.491Z,42.49
2023-05-15T15:15:33.665Z,43.29
2023-05-15T15:18:02.147Z,42.04
2023-05-15T15:20:30.696Z,40.79
2023-05-15T15:22:59.275Z,43.23
2023-05-15T15:25:28.013Z,43.62
2023-05-15T15:27:58.517Z,43.18
2023-05-15T15:30:26.985Z,41.26
2023-05-15T15:32:55.864Z,43.50
2023-05-15T15:35:24.700Z,42.85
2023-05-15T15:37:53.059Z,42.60
2023-05-15T15:40:23.500Z,43.19
2023-05-15T15:42:52.226Z,42.45
2023-05-15T15:45:21.880Z,42.91
2023-05-15T15:47:50.152Z,42.88
2023-05-15T15:50:18.582Z,42.19
2023-05-15T15:52:46.799Z,41.43
2023-05-15T15:55:15.231Z,40.98
2023-05-15T15:57:43.901Z,40.66
2023-05-15T16:00:12.994Z,40.67
2023-05-15T16:02:42.723Z,40.35
2023-05-15T16:05:53.320Z,39.32
2023-05-15T16:08:21.616Z,39.96
2023-05-15T16:10:49.842Z,41.63
2023-05-15T16:13:18.193Z,41.49
2023-05-15T16:15:46.510Z,41.63
2023-05-15T16:18:16.613Z,41.94
2023-05-15T16:20:45.255Z,43.02
2023-05-15T16:23:15.304Z,43.19
2023-05-15T16:25:43.879Z,43.72
2023-05-15T16:28:12.195Z,43.38
2023-05-15T16:30:48.941Z,43.29
2023-05-15T16:33:19.728Z,41.63
2023-05-15T16:35:48.489Z,42.83
2023-05-15T16:38:18.064Z,42.19
2023-05-15T16:40:46.380Z,41.86
2023-05-15T16:43:14.677Z,41.64
2023-05-15T16:45:44.432Z,42.66
2023-05-15T16:48:12.822Z,43.37
2023-05-15T16:50:42.742Z,43.91
2023-05-15T16:53:11.040Z,44.97
2023-05-15T16:55:39.299Z,45.71
2023-05-15T16:58:07.924Z,47.30
2023-05-15T17:00:36.222Z,47.90
2023-05-15T17:03:05.505Z,48.75
2023-05-15T17:05:33.951Z,49.61
2023-05-15T17:08:03.540Z,48.81
2023-05-15T17:10:32.112Z,49.72
2023-05-15T17:13:00.347Z,49.98
2023-05-15T17:15:28.770Z,50.13
2023-05-15T17:17:57.193Z,49.92
2023-05-15T17:20:25.516Z,50.88
2023-05-15T17:22:53.845Z,50.72
2023-05-15T17:25:23.732Z,51.08
2023-05-15T17:27:52.178Z,51.47
2023-05-15T17:30:20.861Z,52.36
2023-05-15T17:32:49.398Z,52.97
2023-05-15T17:35:18.842Z,54.09
2023-05-15T17:37:47.150Z,54.11
2023-05-15T17:40:15.338Z,55.03
2023-05-15T17:42:45.034Z,54.78
2023-05-15T17:45:13.289Z,55.70
2023-05-15T17:47:41.822Z,56.29
2023-05-15T17:50:12.322Z,57.30
2023-05-15T17:52:40.583Z,57.23
2023-05-15T17:55:09.477Z,57.10
2023-05-15T17:57:37.939Z,56.57
2023-05-15T18:00:09.478Z,56.43
2023-05-15T18:02:37.885Z,55.89
2023-05-15T18:05:06.619Z,55.77
2023-05-15T18:07:35.004Z,56.85
2023-05-15T18:10:03.308Z,57.07
2023-05-15T18:12:31.946Z,58.41
2023-05-15T18:15:00.206Z,58.46
2023-05-15T18:17:29.982Z,59.54
2023-05-15T18:19:58.457Z,60.09
2023-05-15T18:22:26.715Z,61.52
2023-05-15T18:24:55.679Z,61.36
2023-05-15T18:27:23.967Z,62.75
2023-05-15T18:29:52.854Z,62.45
2023-05-15T18:32:21.494Z,63.13
2023-05-15T18:34:51.647Z,63.71
2023-05-15T18:37:20.179Z,63.75
2023-05-15T18:39:48.457Z,63.95
2023-05-15T18:42:17.371Z,65.91
2023-05-15T18:44:47.666Z,67.26
2023-05-15T18:47:16.091Z,68.75
2023-05-15T18:49:44.639Z,70.10
2023-05-15T18:52:14.542Z,70.96
2023-05-15T18:54:42.949Z,72.01
2023-05-15T18:57:11.577Z,73.05
2023-05-15T18:59:39.933Z,73.65
2023-05-15T19:02:09.296Z,74.90
2023-05-15T19:04:37.794Z,76.78
2023-05-15T19:07:06.354Z,79.25
2023-05-15T19:09:36.369Z,79.55
2023-05-15T19:12:05.321Z,80.51
2023-05-15T19:14:33.724Z,81.08
2023-05-15T19:17:02.183Z,81.72
2023-05-15T19:19:31.281Z,81.86
2023-05-15T19:21:59.637Z,82.06
2023-05-15T19:24:27.869Z,81.66
2023-05-15T19:26:57.665Z,82.21
2023-05-15T19:29:25.929Z,82.18
2023-05-15T19:31:54.161Z,82.14
2023-05-15T19:34:22.461Z,82.80
2023-05-15T19:36:50.695Z,82.29
2023-05-15T19:39:19.255Z,82.03
2023-05-15T19:41:47.526Z,82.78
2023-05-15T19:44:17.145Z,82.64
2023-05-15T19:46:46.645Z,82.89
2023-05-15T19:49:15.286Z,82.98
2023-05-15T19:51:43.857Z,82.19
2023-05-15T19:54:12.736Z,81.48
2023-05-15T19:56:41.224Z,81.65
2023-05-15T19:59:09.559Z,81.62
2023-05-15T20:01:39.427Z,81.88
2023-05-15T20:04:08.273Z,81.62
2023-05-15T20:06:36.835Z,80.80
2023-05-15T20:09:05.751Z,79.87
2023-05-15T20:11:34.212Z,79.33
2023-05-15T20:14:15.117Z,78.46
2023-05-15T20:16:44.810Z,78.26
2023-05-15T20:19:13.228Z,77.49
2023-05-15T20:21:41.537Z,77.66
2023-05-15T20:24:10.249Z,77.46
2023-05-15T20:26:38.647Z,77.73
2023-05-15T20:29:07.001Z,77.32
2023-05-15T20:31:35.442Z,77.07
2023-05-15T20:34:06.497Z,77.10
2023-05-15T20:36:35.539Z,77.26
2023-05-15T20:39:07.083Z,77.27
2023-05-15T20:41:37.094Z,77.80
2023-05-15T20:44:05.419Z,77.67
2023-05-15T20:46:33.945Z,77.77
2023-05-15T20:49:02.840Z,77.48
2023-05-15T20:51:32.999Z,78.23
2023-05-15T20:54:01.335Z,77.87
2023-05-15T20:56:29.636Z,77.99
2023-05-15T20:58:59.798Z,77.76
2023-05-15T21:01:28.459Z,77.74
2023-05-15T21:03:56.849Z,77.81
2023-05-15T21:06:25.407Z,77.96
2023-05-15T21:08:55.106Z,77.66
2023-05-15T21:11:23.690Z,77.87
2023-05-15T21:13:51.902Z,77.73
2023-05-15T21:16:20.448Z,77.88
2023-05-15T21:18:49.068Z,78.27
2023-05-15T21:21:17.832Z,77.83
2023-05-15T21:23:46.334Z,77.80
2023-05-15T21:26:17.438Z,77.78
2023-05-15T21:28:45.708Z,77.63
2023-05-15T21:31:14.457Z,77.75
2023-05-15T21:33:43.044Z,77.57
2023-05-15T21:36:11.832Z,77.50
2023-05-15T21:38:40.436Z,78.42
2023-05-15T21:41:09.296Z,78.13
2023-05-15T21:43:39.150Z,78.49
2023-05-15T21:46:08.263Z,78.97
2023-05-15T21:48:37.788Z,79.30
2023-05-15T21:51:07.562Z,79.49
2023-05-15T21:53:41.255Z,79.74
2023-05-15T21:56:11.093Z,79.48
2023-05-15T21:58:41.288Z,79.87
2023-05-15T22:01:10.735Z,80.01
2023-05-15T22:03:42.140Z,80.04
2023-05-15T22:06:11.555Z,80.55
2023-05-15T22:08:40.350Z,80.66
2023-05-15T22:11:09.045Z,81.14
2023-05-15T22:13:37.623Z,80.91
2023-05-15T22:16:08.483Z,81.13
2023-05-15T22:18:37.877Z,81.56
2023-05-15T22:21:06.360Z,82.59
2023-05-15T22:23:34.581Z,83.80
2023-05-15T22:26:03.505Z,84.45
2023-05-15T22:28:32.274Z,86.33
2023-05-15T22:31:02.109Z,87.38
2023-05-15T22:33:31.697Z,89.65
2023-05-15T22:36:00.023Z,90.47
2023-05-15T22:38:28.500Z,90.95
2023-05-15T22:40:56.805Z,91.84
2023-05-15T22:43:25.358Z,92.89
2023-05-15T22:45:53.654Z,92.80
2023-05-15T22:48:23.095Z,92.99
2023-05-15T22:50:53.811Z,93.88
2023-05-15T22:53:22.230Z,94.81
2023-05-15T22:55:50.460Z,95.56
2023-05-15T22:58:18.684Z,94.91
2023-05-15T23:00:47.070Z,95.17
2023-05-15T23:03:15.453Z,96.65
2023-05-15T23:05:43.896Z,96.99
2023-05-15T23:08:13.559Z,97.77
2023-05-15T23:10:41.790Z,98.52
2023-05-15T23:13:10.009Z,97.96
2023-05-15T23:15:38.298Z,98.58
2023-05-15T23:18:06.686Z,99.60
2023-05-15T23:20:35.027Z,99.84
2023-05-15T23:23:03.219Z,100.00
2023-05-15T23:25:32.844Z,99.29
2023-05-15T23:28:01.091Z,98.59
2023-05-15T23:30:29.446Z,99.24
2023-05-15T23:32:58.004Z,99.95
2023-05-15T23:35:26.232Z,99.67
2023-05-15T23:37:54.436Z,99.90
2023-05-15T23:40:22.701Z,99.89
2023-05-15T23:42:52.352Z,100.00
2023-05-15T23:45:20.823Z,100.00
2023-05-15T23:47:49.031Z,100.00
2023-05-15T23:50:18.072Z,100.00
2023-05-15T23:52:46.337Z,100.00
2023-05-15T23:55:14.785Z,100.00
2023-05-15T23:57:43.854Z,100.00
